sensor_id;sensor_type;location;lat;lon;timestamp;pressure;altitude;pressure_sealevel;temperature;humidity
23318;BME280;11831;55.918;37.746;2023-04-15T00:00:10;100456.34;;;4.23;36.83
23318;BME280;11831;55.918;37.746;2023-04-15T00:02:38;100455.34;;;4.16;36.86
23318;BME280;11831;55.918;37.746;2023-04-15T00:05:04;100458.00;;;4.16;36.94
23318;BME280;11831;55.918;37.746;2023-04-15T00:07:31;100464.13;;;4.24;36.92
23318;BME280;11831;55.918;37.746;2023-04-15T00:09:57;100469.94;;;4.28;36.75
23318;BME280;11831;55.918;37.746;2023-04-15T00:12:24;100470.00;;;4.60;36.54
23318;BME280;11831;55.918;37.746;2023-04-15T00:14:50;100479.72;;;4.35;36.58
23318;BME280;11831;55.918;37.746;2023-04-15T00:17:16;100462.78;;;4.04;36.69
23318;BME280;11831;55.918;37.746;2023-04-15T00:19:43;100479.44;;;3.96;36.81
23318;BME280;11831;55.918;37.746;2023-04-15T00:22:12;100482.22;;;3.53;37.38
23318;BME280;11831;55.918;37.746;2023-04-15T00:24:38;100475.53;;;4.09;37.09
23318;BME280;11831;55.918;37.746;2023-04-15T00:27:04;100483.31;;;4.18;36.75
23318;BME280;11831;55.918;37.746;2023-04-15T00:29:30;100490.25;;;4.11;36.62
23318;BME280;11831;55.918;37.746;2023-04-15T00:31:57;100483.53;;;4.33;36.47
23318;BME280;11831;55.918;37.746;2023-04-15T00:34:23;100478.91;;;4.35;36.73
23318;BME280;11831;55.918;37.746;2023-04-15T00:36:49;100482.81;;;4.23;36.59
23318;BME280;11831;55.918;37.746;2023-04-15T00:39:16;100492.06;;;4.02;36.68
23318;BME280;11831;55.918;37.746;2023-04-15T00:41:43;100490.25;;;4.11;36.68
23318;BME280;11831;55.918;37.746;2023-04-15T00:44:09;100497.78;;;3.98;36.54
23318;BME280;11831;55.918;37.746;2023-04-15T00:46:35;100498.16;;;4.03;36.74
23318;BME280;11831;55.918;37.746;2023-04-15T00:49:03;100499.69;;;4.14;36.78
23318;BME280;11831;55.918;37.746;2023-04-15T00:51:29;100508.75;;;4.03;36.88
23318;BME280;11831;55.918;37.746;2023-04-15T00:53:58;100502.75;;;3.93;36.77
23318;BME280;11831;55.918;37.746;2023-04-15T00:56:25;100507.38;;;3.91;36.95
23318;BME280;11831;55.918;37.746;2023-04-15T00:58:51;100508.37;;;3.64;37.08
23318;BME280;11831;55.918;37.746;2023-04-15T01:01:21;100514.53;;;3.98;36.93
23318;BME280;11831;55.918;37.746;2023-04-15T01:03:48;100520.69;;;4.07;36.67
23318;BME280;11831;55.918;37.746;2023-04-15T01:06:15;100520.19;;;4.03;37.18
23318;BME280;11831;55.918;37.746;2023-04-15T01:08:42;100525.16;;;3.72;37.41
23318;BME280;11831;55.918;37.746;2023-04-15T01:11:08;100526.78;;;3.99;37.18
23318;BME280;11831;55.918;37.746;2023-04-15T01:13:35;100525.19;;;3.81;37.22
23318;BME280;11831;55.918;37.746;2023-04-15T01:16:02;100529.03;;;3.94;37.16
23318;BME280;11831;55.918;37.746;2023-04-15T01:18:28;100521.91;;;3.87;37.15
23318;BME280;11831;55.918;37.746;2023-04-15T01:20:55;100529.72;;;3.96;37.26
23318;BME280;11831;55.918;37.746;2023-04-15T01:23:22;100527.88;;;3.89;37.41
23318;BME280;11831;55.918;37.746;2023-04-15T01:25:48;100539.13;;;3.91;37.64
23318;BME280;11831;55.918;37.746;2023-04-15T01:28:15;100545.66;;;3.70;37.47
23318;BME280;11831;55.918;37.746;2023-04-15T01:30:41;100541.44;;;3.60;37.87
23318;BME280;11831;55.918;37.746;2023-04-15T01:33:08;100537.31;;;3.91;37.61
23318;BME280;11831;55.918;37.746;2023-04-15T01:35:52;100547.06;;;3.65;37.65
23318;BME280;11831;55.918;37.746;2023-04-15T01:38:18;100543.69;;;3.72;37.58
23318;BME280;11831;55.918;37.746;2023-04-15T01:40:44;100555.41;;;3.70;37.77
23318;BME280;11831;55.918;37.746;2023-04-15T01:43:10;100551.31;;;3.84;37.56
23318;BME280;11831;55.918;37.746;2023-04-15T01:45:37;100559.47;;;3.90;37.78
23318;BME280;11831;55.918;37.746;2023-04-15T01:48:03;100556.28;;;3.53;37.64
23318;BME280;11831;55.918;37.746;2023-04-15T01:50:29;100566.75;;;3.62;37.81
23318;BME280;11831;55.918;37.746;2023-04-15T01:52:56;100559.09;;;3.85;37.82
23318;BME280;11831;55.918;37.746;2023-04-15T01:55:22;100563.53;;;3.77;37.63
23318;BME280;11831;55.918;37.746;2023-04-15T01:57:48;100559.44;;;3.56;37.82
23318;BME280;11831;55.918;37.746;2023-04-15T02:00:14;100564.03;;;3.80;38.01
23318;BME280;11831;55.918;37.746;2023-04-15T02:02:41;100567.03;;;3.33;38.24
23318;BME280;11831;55.918;37.746;2023-04-15T02:05:07;100576.91;;;3.49;37.95
23318;BME280;11831;55.918;37.746;2023-04-15T02:07:34;100565.38;;;3.32;38.28
23318;BME280;11831;55.918;37.746;2023-04-15T02:10:01;100581.47;;;3.39;38.32
23318;BME280;11831;55.918;37.746;2023-04-15T02:12:28;100580.38;;;3.50;38.08
23318;BME280;11831;55.918;37.746;2023-04-15T02:14:55;100585.00;;;3.48;38.26
23318;BME280;11831;55.918;37.746;2023-04-15T02:17:21;100582.16;;;3.41;38.14
23318;BME280;11831;55.918;37.746;2023-04-15T02:19:47;100581.16;;;3.42;38.20
23318;BME280;11831;55.918;37.746;2023-04-15T02:22:14;100584.94;;;3.39;38.44
23318;BME280;11831;55.918;37.746;2023-04-15T02:24:43;100579.75;;;3.56;38.24
23318;BME280;11831;55.918;37.746;2023-04-15T02:27:14;100587.34;;;3.33;38.36
23318;BME280;11831;55.918;37.746;2023-04-15T02:29:40;100584.72;;;2.97;38.50
23318;BME280;11831;55.918;37.746;2023-04-15T02:32:07;100591.16;;;3.12;38.70
23318;BME280;11831;55.918;37.746;2023-04-15T02:34:33;100596.09;;;3.33;38.43
23318;BME280;11831;55.918;37.746;2023-04-15T02:37:00;100594.97;;;3.36;38.43
23318;BME280;11831;55.918;37.746;2023-04-15T02:39:26;100596.34;;;3.40;38.30
23318;BME280;11831;55.918;37.746;2023-04-15T02:41:52;100599.06;;;3.30;38.40
23318;BME280;11831;55.918;37.746;2023-04-15T02:44:18;100605.47;;;3.46;38.36
23318;BME280;11831;55.918;37.746;2023-04-15T02:46:45;100615.56;;;3.68;38.42
23318;BME280;11831;55.918;37.746;2023-04-15T02:49:17;100619.75;;;3.35;38.60
23318;BME280;11831;55.918;37.746;2023-04-15T02:51:43;100620.97;;;3.40;38.53
23318;BME280;11831;55.918;37.746;2023-04-15T02:54:20;100630.31;;;3.53;38.68
23318;BME280;11831;55.918;37.746;2023-04-15T02:56:47;100625.12;;;3.43;38.53
23318;BME280;11831;55.918;37.746;2023-04-15T02:59:15;100628.34;;;3.55;38.11
23318;BME280;11831;55.918;37.746;2023-04-15T03:01:41;100632.97;;;2.99;38.12
23318;BME280;11831;55.918;37.746;2023-04-15T03:04:07;100634.66;;;3.18;38.58
23318;BME280;11831;55.918;37.746;2023-04-15T03:06:33;100632.56;;;3.65;38.37
23318;BME280;11831;55.918;37.746;2023-04-15T03:09:00;100644.50;;;3.69;38.04
23318;BME280;11831;55.918;37.746;2023-04-15T03:11:27;100647.50;;;3.13;38.01
23318;BME280;11831;55.918;37.746;2023-04-15T03:13:54;100645.59;;;3.41;37.90
23318;BME280;11831;55.918;37.746;2023-04-15T03:16:20;100652.78;;;3.31;37.82
23318;BME280;11831;55.918;37.746;2023-04-15T03:18:46;100652.97;;;3.55;37.87
23318;BME280;11831;55.918;37.746;2023-04-15T03:21:12;100655.47;;;3.74;37.76
23318;BME280;11831;55.918;37.746;2023-04-15T03:23:38;100652.44;;;3.95;37.24
23318;BME280;11831;55.918;37.746;2023-04-15T03:26:04;100653.75;;;3.30;37.19
23318;BME280;11831;55.918;37.746;2023-04-15T03:28:31;100665.13;;;3.66;37.05
23318;BME280;11831;55.918;37.746;2023-04-15T03:30:58;100657.34;;;3.64;37.16
23318;BME280;11831;55.918;37.746;2023-04-15T03:33:24;100664.53;;;3.72;37.12
23318;BME280;11831;55.918;37.746;2023-04-15T03:35:50;100667.34;;;3.53;37.35
23318;BME280;11831;55.918;37.746;2023-04-15T03:38:17;100667.97;;;3.47;37.17
23318;BME280;11831;55.918;37.746;2023-04-15T03:40:45;100668.31;;;3.69;37.36
23318;BME280;11831;55.918;37.746;2023-04-15T03:43:11;100670.50;;;3.74;37.32
23318;BME280;11831;55.918;37.746;2023-04-15T03:45:38;100670.13;;;3.69;37.22
23318;BME280;11831;55.918;37.746;2023-04-15T03:48:04;100674.53;;;3.86;37.23
23318;BME280;11831;55.918;37.746;2023-04-15T03:50:31;100674.06;;;3.91;37.23
23318;BME280;11831;55.918;37.746;2023-04-15T03:52:57;100681.81;;;3.84;37.15
23318;BME280;11831;55.918;37.746;2023-04-15T03:55:23;100680.47;;;4.06;36.96
23318;BME280;11831;55.918;37.746;2023-04-15T03:57:50;100683.53;;;3.93;37.15
23318;BME280;11831;55.918;37.746;2023-04-15T04:00:16;100678.34;;;4.10;36.87
23318;BME280;11831;55.918;37.746;2023-04-15T04:02:42;100673.34;;;3.81;37.40
23318;BME280;11831;55.918;37.746;2023-04-15T04:05:08;100680.94;;;3.76;37.10
23318;BME280;11831;55.918;37.746;2023-04-15T04:07:35;100686.69;;;3.97;37.01
23318;BME280;11831;55.918;37.746;2023-04-15T04:10:01;100691.41;;;3.85;37.25
23318;BME280;11831;55.918;37.746;2023-04-15T04:12:28;100690.06;;;3.81;36.93
23318;BME280;11831;55.918;37.746;2023-04-15T04:14:54;100690.03;;;3.99;37.04
23318;BME280;11831;55.918;37.746;2023-04-15T04:17:21;100687.66;;;3.96;36.89
23318;BME280;11831;55.918;37.746;2023-04-15T04:19:47;100697.56;;;4.37;36.90
23318;BME280;11831;55.918;37.746;2023-04-15T04:22:13;100699.41;;;4.45;36.65
23318;BME280;11831;55.918;37.746;2023-04-15T04:24:39;100700.44;;;4.52;36.56
23318;BME280;11831;55.918;37.746;2023-04-15T04:27:06;100702.06;;;4.45;36.83
23318;BME280;11831;55.918;37.746;2023-04-15T04:29:32;100708.78;;;4.65;36.47
23318;BME280;11831;55.918;37.746;2023-04-15T04:31:58;100704.31;;;4.32;36.79
23318;BME280;11831;55.918;37.746;2023-04-15T04:34:24;100708.88;;;4.56;36.52
23318;BME280;11831;55.918;37.746;2023-04-15T04:36:50;100706.38;;;4.46;36.25
23318;BME280;11831;55.918;37.746;2023-04-15T04:39:16;100708.97;;;4.12;36.35
23318;BME280;11831;55.918;37.746;2023-04-15T04:41:43;100709.28;;;5.19;36.16
23318;BME280;11831;55.918;37.746;2023-04-15T04:44:09;100712.66;;;4.45;36.09
23318;BME280;11831;55.918;37.746;2023-04-15T04:46:35;100723.34;;;4.61;36.27
23318;BME280;11831;55.918;37.746;2023-04-15T04:49:01;100710.00;;;4.87;36.17
23318;BME280;11831;55.918;37.746;2023-04-15T04:51:27;100704.28;;;5.00;35.99
23318;BME280;11831;55.918;37.746;2023-04-15T04:53:53;100713.06;;;5.01;35.96
23318;BME280;11831;55.918;37.746;2023-04-15T04:56:19;100707.44;;;5.12;36.00
23318;BME280;11831;55.918;37.746;2023-04-15T04:58:46;100712.81;;;4.86;35.76
23318;BME280;11831;55.918;37.746;2023-04-15T05:01:12;100708.03;;;4.89;36.12
23318;BME280;11831;55.918;37.746;2023-04-15T05:03:38;100714.94;;;5.24;36.45
23318;BME280;11831;55.918;37.746;2023-04-15T05:06:04;100715.50;;;5.52;36.10
23318;BME280;11831;55.918;37.746;2023-04-15T05:08:33;100727.16;;;5.92;35.81
23318;BME280;11831;55.918;37.746;2023-04-15T05:10:59;100717.47;;;5.75;35.50
23318;BME280;11831;55.918;37.746;2023-04-15T05:13:25;100718.47;;;5.66;35.62
23318;BME280;11831;55.918;37.746;2023-04-15T05:15:51;100716.78;;;5.40;35.86
23318;BME280;11831;55.918;37.746;2023-04-15T05:18:18;100716.91;;;5.14;35.84
23318;BME280;11831;55.918;37.746;2023-04-15T05:20:44;100718.63;;;5.48;35.42
23318;BME280;11831;55.918;37.746;2023-04-15T05:23:10;100722.00;;;5.82;35.36
23318;BME280;11831;55.918;37.746;2023-04-15T05:25:36;100716.00;;;5.56;35.05
23318;BME280;11831;55.918;37.746;2023-04-15T05:28:02;100707.34;;;5.38;35.11
23318;BME280;11831;55.918;37.746;2023-04-15T05:30:28;100721.81;;;5.51;35.07
23318;BME280;11831;55.918;37.746;2023-04-15T05:32:55;100716.00;;;5.72;34.84
23318;BME280;11831;55.918;37.746;2023-04-15T05:35:21;100718.66;;;5.64;34.90
23318;BME280;11831;55.918;37.746;2023-04-15T05:37:47;100723.44;;;5.44;35.06
23318;BME280;11831;55.918;37.746;2023-04-15T05:40:13;100723.91;;;5.23;34.95
23318;BME280;11831;55.918;37.746;2023-04-15T05:42:40;100716.50;;;5.84;34.74
23318;BME280;11831;55.918;37.746;2023-04-15T05:45:06;100723.97;;;5.64;34.92
23318;BME280;11831;55.918;37.746;2023-04-15T05:47:34;100724.44;;;5.76;34.82
23318;BME280;11831;55.918;37.746;2023-04-15T05:50:00;100716.19;;;5.95;34.55
23318;BME280;11831;55.918;37.746;2023-04-15T05:52:27;100734.44;;;6.22;34.54
23318;BME280;11831;55.918;37.746;2023-04-15T05:54:53;100730.28;;;5.87;34.34
23318;BME280;11831;55.918;37.746;2023-04-15T05:57:19;100728.44;;;5.88;34.45
23318;BME280;11831;55.918;37.746;2023-04-15T05:59:45;100727.81;;;6.02;34.31
23318;BME280;11831;55.918;37.746;2023-04-15T06:02:11;100732.56;;;6.39;34.07
23318;BME280;11831;55.918;37.746;2023-04-15T06:04:38;100739.25;;;5.95;34.06
23318;BME280;11831;55.918;37.746;2023-04-15T06:07:04;100743.50;;;5.47;34.05
23318;BME280;11831;55.918;37.746;2023-04-15T06:09:30;100748.03;;;6.28;34.26
23318;BME280;11831;55.918;37.746;2023-04-15T06:11:57;100745.16;;;6.53;33.87
23318;BME280;11831;55.918;37.746;2023-04-15T06:14:24;100756.78;;;7.00;33.35
23318;BME280;11831;55.918;37.746;2023-04-15T06:16:50;100752.88;;;7.50;32.98
23318;BME280;11831;55.918;37.746;2023-04-15T06:19:16;100755.03;;;7.23;32.82
23318;BME280;11831;55.918;37.746;2023-04-15T06:21:43;100748.97;;;7.06;32.90
23318;BME280;11831;55.918;37.746;2023-04-15T06:24:10;100760.53;;;7.75;32.81
23318;BME280;11831;55.918;37.746;2023-04-15T06:26:36;100755.28;;;7.05;32.82
23318;BME280;11831;55.918;37.746;2023-04-15T06:29:02;100751.38;;;6.21;32.97
23318;BME280;11831;55.918;37.746;2023-04-15T06:31:29;100752.59;;;7.44;33.10
23318;BME280;11831;55.918;37.746;2023-04-15T06:33:55;100760.47;;;7.30;32.75
23318;BME280;11831;55.918;37.746;2023-04-15T06:36:22;100756.59;;;7.63;32.61
23318;BME280;11831;55.918;37.746;2023-04-15T06:38:48;100753.88;;;7.94;32.19
23318;BME280;11831;55.918;37.746;2023-04-15T06:41:14;100757.69;;;8.00;32.16
23318;BME280;11831;55.918;37.746;2023-04-15T06:43:40;100757.81;;;7.30;32.16
23318;BME280;11831;55.918;37.746;2023-04-15T06:46:06;100761.28;;;7.38;32.09
23318;BME280;11831;55.918;37.746;2023-04-15T06:48:32;100762.87;;;7.47;32.33
23318;BME280;11831;55.918;37.746;2023-04-15T06:50:58;100758.81;;;8.05;31.93
23318;BME280;11831;55.918;37.746;2023-04-15T06:53:25;100757.53;;;8.54;31.87
23318;BME280;11831;55.918;37.746;2023-04-15T06:55:54;100766.72;;;8.36;31.94
23318;BME280;11831;55.918;37.746;2023-04-15T06:58:20;100766.19;;;8.70;31.73
23318;BME280;11831;55.918;37.746;2023-04-15T07:00:46;100760.00;;;8.40;31.65
23318;BME280;11831;55.918;37.746;2023-04-15T07:03:15;100758.94;;;8.79;31.55
23318;BME280;11831;55.918;37.746;2023-04-15T07:05:41;100771.34;;;8.57;31.19
23318;BME280;11831;55.918;37.746;2023-04-15T07:08:07;100773.22;;;7.96;31.47
23318;BME280;11831;55.918;37.746;2023-04-15T07:10:33;100766.19;;;8.70;31.11
23318;BME280;11831;55.918;37.746;2023-04-15T07:12:59;100771.19;;;8.88;30.77
23318;BME280;11831;55.918;37.746;2023-04-15T07:15:26;100762.59;;;8.78;30.68
23318;BME280;11831;55.918;37.746;2023-04-15T07:17:52;100772.09;;;8.95;30.62
23318;BME280;11831;55.918;37.746;2023-04-15T07:20:19;100770.06;;;8.68;30.96
23318;BME280;11831;55.918;37.746;2023-04-15T07:22:45;100776.47;;;9.18;30.73
23318;BME280;11831;55.918;37.746;2023-04-15T07:25:11;100772.63;;;9.56;30.43
23318;BME280;11831;55.918;37.746;2023-04-15T07:27:37;100774.94;;;9.45;29.87
23318;BME280;11831;55.918;37.746;2023-04-15T07:30:03;100774.56;;;9.84;29.83
23318;BME280;11831;55.918;37.746;2023-04-15T07:32:30;100773.91;;;9.24;30.04
23318;BME280;11831;55.918;37.746;2023-04-15T07:34:57;100768.63;;;9.16;29.98
23318;BME280;11831;55.918;37.746;2023-04-15T07:37:23;100767.94;;;8.78;30.27
23318;BME280;11831;55.918;37.746;2023-04-15T07:39:49;100769.84;;;8.84;30.37
23318;BME280;11831;55.918;37.746;2023-04-15T07:42:15;100767.38;;;8.97;30.21
23318;BME280;11831;55.918;37.746;2023-04-15T07:44:41;100775.13;;;9.43;30.08
23318;BME280;11831;55.918;37.746;2023-04-15T07:47:08;100768.28;;;9.77;30.04
23318;BME280;11831;55.918;37.746;2023-04-15T07:49:34;100752.50;;;10.03;30.19
23318;BME280;11831;55.918;37.746;2023-04-15T07:52:00;100764.50;;;9.86;29.69
23318;BME280;11831;55.918;37.746;2023-04-15T07:54:26;100764.78;;;9.19;29.71
23318;BME280;11831;55.918;37.746;2023-04-15T07:56:52;100761.59;;;9.45;29.34
23318;BME280;11831;55.918;37.746;2023-04-15T07:59:18;100761.50;;;9.74;29.52
23318;BME280;11831;55.918;37.746;2023-04-15T08:01:45;100748.41;;;10.22;29.05
23318;BME280;11831;55.918;37.746;2023-04-15T08:04:11;100755.41;;;9.80;28.85
23318;BME280;11831;55.918;37.746;2023-04-15T08:06:37;100751.69;;;10.03;28.64
23318;BME280;11831;55.918;37.746;2023-04-15T08:09:05;100757.09;;;10.09;28.34
23318;BME280;11831;55.918;37.746;2023-04-15T08:11:31;100752.69;;;10.44;28.15
23318;BME280;11831;55.918;37.746;2023-04-15T08:13:58;100762.06;;;10.68;27.92
23318;BME280;11831;55.918;37.746;2023-04-15T08:16:24;100764.03;;;10.87;28.00
23318;BME280;11831;55.918;37.746;2023-04-15T08:18:54;100755.81;;;10.54;27.32
23318;BME280;11831;55.918;37.746;2023-04-15T08:21:20;100759.47;;;10.47;27.47
23318;BME280;11831;55.918;37.746;2023-04-15T08:23:47;100762.41;;;10.93;27.53
23318;BME280;11831;55.918;37.746;2023-04-15T08:26:14;100762.97;;;10.47;27.72
23318;BME280;11831;55.918;37.746;2023-04-15T08:28:41;100766.06;;;11.20;27.78
23318;BME280;11831;55.918;37.746;2023-04-15T08:31:07;100765.87;;;11.28;27.56
23318;BME280;11831;55.918;37.746;2023-04-15T08:33:34;100757.78;;;11.08;27.67
23318;BME280;11831;55.918;37.746;2023-04-15T08:36:00;100752.25;;;11.23;27.43
23318;BME280;11831;55.918;37.746;2023-04-15T08:38:26;100759.66;;;11.21;27.43
23318;BME280;11831;55.918;37.746;2023-04-15T08:40:52;100758.34;;;11.51;27.17
23318;BME280;11831;55.918;37.746;2023-04-15T08:43:23;100750.38;;;11.78;27.15
23318;BME280;11831;55.918;37.746;2023-04-15T08:45:51;100750.94;;;11.60;27.32
23318;BME280;11831;55.918;37.746;2023-04-15T08:48:18;100740.12;;;11.95;26.73
23318;BME280;11831;55.918;37.746;2023-04-15T08:50:45;100750.62;;;11.96;26.51
23318;BME280;11831;55.918;37.746;2023-04-15T08:53:12;100743.41;;;12.17;25.94
23318;BME280;11831;55.918;37.746;2023-04-15T08:55:46;100742.25;;;11.38;25.85
23318;BME280;11831;55.918;37.746;2023-04-15T08:58:16;100738.22;;;11.89;25.96
23318;BME280;11831;55.918;37.746;2023-04-15T09:00:42;100746.41;;;11.61;25.75
23318;BME280;11831;55.918;37.746;2023-04-15T09:03:09;100737.28;;;11.35;25.98
23318;BME280;11831;55.918;37.746;2023-04-15T09:05:35;100714.19;;;10.73;26.45
23318;BME280;11831;55.918;37.746;2023-04-15T09:08:02;100730.50;;;11.39;26.91
23318;BME280;11831;55.918;37.746;2023-04-15T09:10:29;100740.28;;;12.20;26.63
23318;BME280;11831;55.918;37.746;2023-04-15T09:12:55;100734.94;;;12.26;26.66
23318;BME280;11831;55.918;37.746;2023-04-15T09:15:25;100730.31;;;11.61;26.99
23318;BME280;11831;55.918;37.746;2023-04-15T09:17:55;100725.72;;;11.28;26.93
23318;BME280;11831;55.918;37.746;2023-04-15T09:20:21;100736.34;;;11.76;26.45
23318;BME280;11831;55.918;37.746;2023-04-15T09:22:49;100729.53;;;11.67;26.28
23318;BME280;11831;55.918;37.746;2023-04-15T09:27:50;100721.28;;;12.54;26.26
23318;BME280;11831;55.918;37.746;2023-04-15T09:30:17;100717.16;;;11.66;25.85
23318;BME280;11831;55.918;37.746;2023-04-15T09:35:16;100719.66;;;13.56;25.45
23318;BME280;11831;55.918;37.746;2023-04-15T09:37:42;100721.81;;;12.89;25.47
23318;BME280;11831;55.918;37.746;2023-04-15T09:40:08;100727.22;;;13.34;25.32
23318;BME280;11831;55.918;37.746;2023-04-15T09:42:35;100722.97;;;12.22;25.41
23318;BME280;11831;55.918;37.746;2023-04-15T09:45:10;100721.50;;;13.24;25.04
23318;BME280;11831;55.918;37.746;2023-04-15T09:47:37;100725.88;;;13.05;25.24
23318;BME280;11831;55.918;37.746;2023-04-15T09:50:03;100726.69;;;13.57;25.16
23318;BME280;11831;55.918;37.746;2023-04-15T09:52:29;100726.56;;;12.87;25.31
23318;BME280;11831;55.918;37.746;2023-04-15T09:54:56;100716.31;;;13.60;25.37
23318;BME280;11831;55.918;37.746;2023-04-15T09:57:23;100713.22;;;13.25;25.21
23318;BME280;11831;55.918;37.746;2023-04-15T09:59:49;100720.25;;;13.26;25.30
23318;BME280;11831;55.918;37.746;2023-04-15T10:02:17;100712.63;;;13.55;25.37
23318;BME280;11831;55.918;37.746;2023-04-15T10:04:43;100725.06;;;12.27;25.29
23318;BME280;11831;55.918;37.746;2023-04-15T10:07:11;100717.84;;;13.50;25.47
23318;BME280;11831;55.918;37.746;2023-04-15T10:09:38;100720.94;;;14.28;24.79
23318;BME280;11831;55.918;37.746;2023-04-15T10:12:04;100722.16;;;13.82;24.56
23318;BME280;11831;55.918;37.746;2023-04-15T10:14:31;100722.72;;;13.59;24.50
23318;BME280;11831;55.918;37.746;2023-04-15T10:16:59;100716.69;;;14.39;24.56
23318;BME280;11831;55.918;37.746;2023-04-15T10:19:26;100718.34;;;14.46;24.52
23318;BME280;11831;55.918;37.746;2023-04-15T10:21:57;100720.00;;;14.84;24.15
23318;BME280;11831;55.918;37.746;2023-04-15T10:24:23;100722.66;;;15.50;24.19
23318;BME280;11831;55.918;37.746;2023-04-15T10:26:50;100720.75;;;15.69;24.14
23318;BME280;11831;55.918;37.746;2023-04-15T10:29:17;100724.41;;;15.45;24.54
23318;BME280;11831;55.918;37.746;2023-04-15T10:31:45;100707.06;;;14.74;24.43
23318;BME280;11831;55.918;37.746;2023-04-15T10:34:11;100709.00;;;14.85;24.28
23318;BME280;11831;55.918;37.746;2023-04-15T10:36:38;100711.09;;;15.02;24.14
23318;BME280;11831;55.918;37.746;2023-04-15T10:39:50;100711.75;;;14.60;24.02
23318;BME280;11831;55.918;37.746;2023-04-15T10:44:36;100709.47;;;15.61;23.88
23318;BME280;11831;55.918;37.746;2023-04-15T10:47:10;100709.69;;;16.48;23.61
23318;BME280;11831;55.918;37.746;2023-04-15T10:49:44;100705.53;;;15.87;23.94
23318;BME280;11831;55.918;37.746;2023-04-15T10:52:11;100710.69;;;15.46;24.04
23318;BME280;11831;55.918;37.746;2023-04-15T10:54:37;100712.22;;;15.72;23.92
23318;BME280;11831;55.918;37.746;2023-04-15T10:59:37;100701.44;;;15.72;23.64
23318;BME280;11831;55.918;37.746;2023-04-15T11:02:06;100699.50;;;16.38;23.58
23318;BME280;11831;55.918;37.746;2023-04-15T11:09:58;100702.16;;;16.85;23.94
23318;BME280;11831;55.918;37.746;2023-04-15T11:12:32;100704.03;;;17.53;23.31
23318;BME280;11831;55.918;37.746;2023-04-15T11:15:00;100700.97;;;17.78;22.96
23318;BME280;11831;55.918;37.746;2023-04-15T11:17:46;100700.63;;;18.80;22.51
23318;BME280;11831;55.918;37.746;2023-04-15T11:20:15;100704.72;;;18.27;22.62
23318;BME280;11831;55.918;37.746;2023-04-15T11:22:46;100701.34;;;17.41;22.25
23318;BME280;11831;55.918;37.746;2023-04-15T11:25:23;100694.06;;;18.98;22.12
23318;BME280;11831;55.918;37.746;2023-04-15T11:27:49;100699.94;;;18.89;22.16
23318;BME280;11831;55.918;37.746;2023-04-15T11:30:17;100691.97;;;19.53;22.06
23318;BME280;11831;55.918;37.746;2023-04-15T11:32:43;100681.97;;;20.23;21.65
23318;BME280;11831;55.918;37.746;2023-04-15T11:35:09;100689.41;;;20.85;21.61
23318;BME280;11831;55.918;37.746;2023-04-15T11:37:35;100683.47;;;21.03;21.44
23318;BME280;11831;55.918;37.746;2023-04-15T11:40:02;100685.22;;;21.35;21.51
23318;BME280;11831;55.918;37.746;2023-04-15T11:42:28;100677.09;;;21.70;20.99
23318;BME280;11831;55.918;37.746;2023-04-15T11:45:15;100679.25;;;22.29;20.33
23318;BME280;11831;55.918;37.746;2023-04-15T11:47:41;100680.09;;;21.44;20.34
23318;BME280;11831;55.918;37.746;2023-04-15T11:50:17;100673.06;;;23.43;19.95
23318;BME280;11831;55.918;37.746;2023-04-15T11:55:19;100668.22;;;20.97;19.94
23318;BME280;11831;55.918;37.746;2023-04-15T11:57:45;100665.62;;;21.38;20.13
23318;BME280;11831;55.918;37.746;2023-04-15T12:00:12;100661.00;;;22.25;20.04
23318;BME280;11831;55.918;37.746;2023-04-15T12:02:38;100662.66;;;22.26;19.96
23318;BME280;11831;55.918;37.746;2023-04-15T12:05:04;100660.63;;;19.14;19.88
23318;BME280;11831;55.918;37.746;2023-04-15T12:07:31;100660.91;;;21.03;20.18
23318;BME280;11831;55.918;37.746;2023-04-15T12:09:57;100651.69;;;23.16;19.80
23318;BME280;11831;55.918;37.746;2023-04-15T12:12:27;100652.06;;;22.99;19.64
23318;BME280;11831;55.918;37.746;2023-04-15T12:14:55;100655.34;;;23.79;19.53
23318;BME280;11831;55.918;37.746;2023-04-15T12:17:22;100652.06;;;22.99;19.46
23318;BME280;11831;55.918;37.746;2023-04-15T12:19:54;100639.41;;;24.44;19.35
23318;BME280;11831;55.918;37.746;2023-04-15T12:22:21;100637.72;;;22.68;19.62
23318;BME280;11831;55.918;37.746;2023-04-15T12:24:52;100645.16;;;25.10;19.23
23318;BME280;11831;55.918;37.746;2023-04-15T12:27:19;100645.97;;;25.48;18.95
23318;BME280;11831;55.918;37.746;2023-04-15T12:29:45;100640.87;;;25.22;18.81
23318;BME280;11831;55.918;37.746;2023-04-15T12:32:12;100639.88;;;26.29;18.56
23318;BME280;11831;55.918;37.746;2023-04-15T12:34:43;100630.59;;;25.84;18.36
23318;BME280;11831;55.918;37.746;2023-04-15T12:37:11;100636.25;;;26.61;18.33
23318;BME280;11831;55.918;37.746;2023-04-15T12:39:39;100634.22;;;26.81;18.30
23318;BME280;11831;55.918;37.746;2023-04-15T12:42:06;100634.28;;;25.93;18.65
23318;BME280;11831;55.918;37.746;2023-04-15T12:44:33;100636.16;;;25.28;18.41
23318;BME280;11831;55.918;37.746;2023-04-15T12:47:00;100627.66;;;26.68;17.94
23318;BME280;11831;55.918;37.746;2023-04-15T12:49:26;100633.41;;;26.94;18.18
23318;BME280;11831;55.918;37.746;2023-04-15T12:51:53;100636.03;;;28.02;18.08
23318;BME280;11831;55.918;37.746;2023-04-15T12:54:20;100632.75;;;27.69;18.19
23318;BME280;11831;55.918;37.746;2023-04-15T12:56:47;100628.91;;;29.06;17.90
23318;BME280;11831;55.918;37.746;2023-04-15T12:59:14;100626.94;;;27.93;17.58
23318;BME280;11831;55.918;37.746;2023-04-15T13:01:41;100625.97;;;27.67;17.85